sensor_id;sensor_type;location;lat;lon;timestamp;temperature;humidity
5346;DHT22;2695;49.444;11.054;2022-08-18T00:01:09;25.20;64.20
5346;DHT22;2695;49.444;11.054;2022-08-18T00:03:41;25.20;64.10
5346;DHT22;2695;49.444;11.054;2022-08-18T00:06:24;25.20;64.10
5346;DHT22;2695;49.444;11.054;2022-08-18T00:08:55;25.30;64.80
5346;DHT22;2695;49.444;11.054;2022-08-18T00:11:24;24.70;64.80
5346;DHT22;2695;49.444;11.054;2022-08-18T00:13:53;24.70;65.10
5346;DHT22;2695;49.444;11.054;2022-08-18T00:16:21;24.70;65.10
5346;DHT22;2695;49.444;11.054;2022-08-18T00:18:49;24.80;65.00
5346;DHT22;2695;49.444;11.054;2022-08-18T00:21:17;24.80;64.20
5346;DHT22;2695;49.444;11.054;2022-08-18T00:23:45;24.90;64.10
5346;DHT22;2695;49.444;11.054;2022-08-18T00:26:13;24.90;64.10
5346;DHT22;2695;49.444;11.054;2022-08-18T00:28:42;24.90;63.90
5346;DHT22;2695;49.444;11.054;2022-08-18T00:31:11;25.00;64.10
5346;DHT22;2695;49.444;11.054;2022-08-18T00:33:39;25.00;64.00
5346;DHT22;2695;49.444;11.054;2022-08-18T00:36:09;25.10;63.90
5346;DHT22;2695;49.444;11.054;2022-08-18T00:38:38;25.10;64.00
5346;DHT22;2695;49.444;11.054;2022-08-18T00:41:06;25.20;64.30
5346;DHT22;2695;49.444;11.054;2022-08-18T00:43:38;25.20;65.10
5346;DHT22;2695;49.444;11.054;2022-08-18T00:46:11;25.10;66.00
5346;DHT22;2695;49.444;11.054;2022-08-18T00:48:42;25.10;68.60
5346;DHT22;2695;49.444;11.054;2022-08-18T00:51:18;25.00;73.70
5346;DHT22;2695;49.444;11.054;2022-08-18T00:53:56;24.80;75.70
5346;DHT22;2695;49.444;11.054;2022-08-18T00:56:28;24.50;79.60
5346;DHT22;2695;49.444;11.054;2022-08-18T00:59:02;24.30;84.30
5346;DHT22;2695;49.444;11.054;2022-08-18T01:01:33;24.10;87.20
5346;DHT22;2695;49.444;11.054;2022-08-18T01:04:07;24.00;89.60
5346;DHT22;2695;49.444;11.054;2022-08-18T01:06:39;23.90;90.80
5346;DHT22;2695;49.444;11.054;2022-08-18T01:09:09;23.90;92.10
5346;DHT22;2695;49.444;11.054;2022-08-18T01:11:38;23.80;94.00
5346;DHT22;2695;49.444;11.054;2022-08-18T01:14:07;23.70;95.20
5346;DHT22;2695;49.444;11.054;2022-08-18T01:16:35;23.60;97.20
5346;DHT22;2695;49.444;11.054;2022-08-18T01:19:25;23.60;98.40
5346;DHT22;2695;49.444;11.054;2022-08-18T01:22:16;23.50;99.40
5346;DHT22;2695;49.444;11.054;2022-08-18T01:24:47;23.30;99.90
5346;DHT22;2695;49.444;11.054;2022-08-18T01:27:35;23.20;99.90
5346;DHT22;2695;49.444;11.054;2022-08-18T01:30:06;23.10;99.90
5346;DHT22;2695;49.444;11.054;2022-08-18T01:32:37;22.90;99.90
5346;DHT22;2695;49.444;11.054;2022-08-18T01:35:07;22.80;99.90
5346;DHT22;2695;49.444;11.054;2022-08-18T01:37:37;22.80;99.90
5346;DHT22;2695;49.444;11.054;2022-08-18T01:40:10;22.70;99.90
5346;DHT22;2695;49.444;11.054;2022-08-18T01:42:58;22.70;99.90
5346;DHT22;2695;49.444;11.054;2022-08-18T01:45:30;22.60;99.90
5346;DHT22;2695;49.444;11.054;2022-08-18T01:47:59;22.60;99.90
5346;DHT22;2695;49.444;11.054;2022-08-18T01:50:27;22.70;99.90
5346;DHT22;2695;49.444;11.054;2022-08-18T01:52:56;22.80;99.90
5346;DHT22;2695;49.444;11.054;2022-08-18T01:55:25;22.90;99.90
5346;DHT22;2695;49.444;11.054;2022-08-18T01:57:54;22.90;99.90
5346;DHT22;2695;49.444;11.054;2022-08-18T02:00:22;22.80;99.90
5346;DHT22;2695;49.444;11.054;2022-08-18T02:02:52;22.60;99.90
5346;DHT22;2695;49.444;11.054;2022-08-18T02:05:32;22.50;99.90
5346;DHT22;2695;49.444;11.054;2022-08-18T02:08:01;22.50;99.90
5346;DHT22;2695;49.444;11.054;2022-08-18T02:10:30;22.50;99.90
5346;DHT22;2695;49.444;11.054;2022-08-18T02:12:58;22.50;99.90
5346;DHT22;2695;49.444;11.054;2022-08-18T02:15:26;22.50;99.90
5346;DHT22;2695;49.444;11.054;2022-08-18T02:17:54;22.50;99.90
5346;DHT22;2695;49.444;11.054;2022-08-18T02:20:22;22.50;99.90
5346;DHT22;2695;49.444;11.054;2022-08-18T02:22:50;22.50;99.90
5346;DHT22;2695;49.444;11.054;2022-08-18T02:25:19;22.40;99.90
5346;DHT22;2695;49.444;11.054;2022-08-18T02:27:48;22.30;99.90
5346;DHT22;2695;49.444;11.054;2022-08-18T02:30:17;22.20;99.90
5346;DHT22;2695;49.444;11.054;2022-08-18T02:32:45;22.20;99.90
5346;DHT22;2695;49.444;11.054;2022-08-18T02:35:14;22.10;99.90
5346;DHT22;2695;49.444;11.054;2022-08-18T02:37:42;22.10;99.90
5346;DHT22;2695;49.444;11.054;2022-08-18T02:40:14;22.10;99.90
5346;DHT22;2695;49.444;11.054;2022-08-18T02:42:44;22.10;99.90
5346;DHT22;2695;49.444;11.054;2022-08-18T02:45:14;22.10;99.90
5346;DHT22;2695;49.444;11.054;2022-08-18T02:47:42;22.10;99.90
5346;DHT22;2695;49.444;11.054;2022-08-18T02:50:11;22.10;99.90
5346;DHT22;2695;49.444;11.054;2022-08-18T02:52:39;22.10;99.90
5346;DHT22;2695;49.444;11.054;2022-08-18T02:55:08;22.10;99.90
5346;DHT22;2695;49.444;11.054;2022-08-18T02:57:41;22.10;99.90
5346;DHT22;2695;49.444;11.054;2022-08-18T03:00:10;22.10;99.90
5346;DHT22;2695;49.444;11.054;2022-08-18T03:02:44;22.10;99.90
5346;DHT22;2695;49.444;11.054;2022-08-18T03:05:12;22.10;99.90
5346;DHT22;2695;49.444;11.054;2022-08-18T03:07:40;22.20;99.90
5346;DHT22;2695;49.444;11.054;2022-08-18T03:10:09;22.20;99.90
5346;DHT22;2695;49.444;11.054;2022-08-18T03:12:57;22.20;99.90
5346;DHT22;2695;49.444;11.054;2022-08-18T03:15:25;22.20;99.90
5346;DHT22;2695;49.444;11.054;2022-08-18T03:17:55;22.20;99.90
5346;DHT22;2695;49.444;11.054;2022-08-18T03:20:24;22.20;99.90
5346;DHT22;2695;49.444;11.054;2022-08-18T03:22:56;22.20;99.90
5346;DHT22;2695;49.444;11.054;2022-08-18T03:25:24;22.20;99.90
5346;DHT22;2695;49.444;11.054;2022-08-18T03:27:52;22.20;99.90
5346;DHT22;2695;49.444;11.054;2022-08-18T03:30:21;22.20;99.90
5346;DHT22;2695;49.444;11.054;2022-08-18T03:32:49;22.20;99.90
5346;DHT22;2695;49.444;11.054;2022-08-18T03:35:19;22.30;99.90
5346;DHT22;2695;49.444;11.054;2022-08-18T03:37:47;22.20;99.90
5346;DHT22;2695;49.444;11.054;2022-08-18T03:40:15;22.20;99.90
5346;DHT22;2695;49.444;11.054;2022-08-18T03:42:43;22.30;99.90
5346;DHT22;2695;49.444;11.054;2022-08-18T03:45:11;22.30;99.90
5346;DHT22;2695;49.444;11.054;2022-08-18T03:47:43;22.30;99.90
5346;DHT22;2695;49.444;11.054;2022-08-18T03:50:12;22.40;99.90
5346;DHT22;2695;49.444;11.054;2022-08-18T03:52:41;22.30;99.90
5346;DHT22;2695;49.444;11.054;2022-08-18T03:55:09;22.30;99.90
5346;DHT22;2695;49.444;11.054;2022-08-18T03:57:37;22.30;99.90
5346;DHT22;2695;49.444;11.054;2022-08-18T04:00:06;22.30;99.90
5346;DHT22;2695;49.444;11.054;2022-08-18T04:02:35;22.30;99.90
5346;DHT22;2695;49.444;11.054;2022-08-18T04:05:03;22.30;99.90
5346;DHT22;2695;49.444;11.054;2022-08-18T04:07:32;22.30;99.90
5346;DHT22;2695;49.444;11.054;2022-08-18T04:10:01;22.30;99.90
5346;DHT22;2695;49.444;11.054;2022-08-18T04:12:29;22.40;99.90
5346;DHT22;2695;49.444;11.054;2022-08-18T04:14:58;22.40;99.90
5346;DHT22;2695;49.444;11.054;2022-08-18T04:17:25;22.40;99.90
5346;DHT22;2695;49.444;11.054;2022-08-18T04:19:54;22.40;99.90
5346;DHT22;2695;49.444;11.054;2022-08-18T04:22:24;22.30;99.90
5346;DHT22;2695;49.444;11.054;2022-08-18T04:24:52;22.30;99.90
5346;DHT22;2695;49.444;11.054;2022-08-18T04:27:22;22.20;99.90
5346;DHT22;2695;49.444;11.054;2022-08-18T04:29:50;22.30;99.90
5346;DHT22;2695;49.444;11.054;2022-08-18T04:32:18;22.10;99.90
5346;DHT22;2695;49.444;11.054;2022-08-18T04:34:46;22.10;99.90
5346;DHT22;2695;49.444;11.054;2022-08-18T04:37:15;22.10;99.90
5346;DHT22;2695;49.444;11.054;2022-08-18T04:39:43;22.10;99.90
5346;DHT22;2695;49.444;11.054;2022-08-18T04:42:11;22.00;99.90
5346;DHT22;2695;49.444;11.054;2022-08-18T04:44:41;22.00;99.90
5346;DHT22;2695;49.444;11.054;2022-08-18T04:47:09;22.00;99.90
5346;DHT22;2695;49.444;11.054;2022-08-18T04:49:38;22.00;99.90
5346;DHT22;2695;49.444;11.054;2022-08-18T04:52:06;22.00;99.90
5346;DHT22;2695;49.444;11.054;2022-08-18T04:55:07;22.00;99.90
5346;DHT22;2695;49.444;11.054;2022-08-18T04:57:36;22.00;99.90
5346;DHT22;2695;49.444;11.054;2022-08-18T05:00:07;22.10;99.90
5346;DHT22;2695;49.444;11.054;2022-08-18T05:02:39;22.10;99.90
5346;DHT22;2695;49.444;11.054;2022-08-18T05:05:08;22.00;99.90
5346;DHT22;2695;49.444;11.054;2022-08-18T05:07:42;22.00;99.90
5346;DHT22;2695;49.444;11.054;2022-08-18T05:10:12;22.00;99.90
5346;DHT22;2695;49.444;11.054;2022-08-18T05:12:40;22.10;99.90
5346;DHT22;2695;49.444;11.054;2022-08-18T05:15:09;22.20;99.90
5346;DHT22;2695;49.444;11.054;2022-08-18T05:17:37;22.60;99.90
5346;DHT22;2695;49.444;11.054;2022-08-18T05:20:07;22.90;99.90
5346;DHT22;2695;49.444;11.054;2022-08-18T05:22:36;23.50;99.90
5346;DHT22;2695;49.444;11.054;2022-08-18T05:25:05;23.80;99.90
5346;DHT22;2695;49.444;11.054;2022-08-18T05:27:35;23.70;99.90
5346;DHT22;2695;49.444;11.054;2022-08-18T05:30:05;23.70;99.90
5346;DHT22;2695;49.444;11.054;2022-08-18T05:32:39;23.60;99.90
5346;DHT22;2695;49.444;11.054;2022-08-18T05:35:18;23.60;99.90
5346;DHT22;2695;49.444;11.054;2022-08-18T05:40:35;23.50;99.90
5346;DHT22;2695;49.444;11.054;2022-08-18T05:43:04;23.50;99.90
5346;DHT22;2695;49.444;11.054;2022-08-18T05:45:33;23.60;99.90
5346;DHT22;2695;49.444;11.054;2022-08-18T05:48:03;23.70;99.90
5346;DHT22;2695;49.444;11.054;2022-08-18T05:50:33;23.80;99.90
5346;DHT22;2695;49.444;11.054;2022-08-18T05:53:05;23.90;99.90
5346;DHT22;2695;49.444;11.054;2022-08-18T05:55:45;24.10;99.90
5346;DHT22;2695;49.444;11.054;2022-08-18T05:58:36;24.60;99.90
5346;DHT22;2695;49.444;11.054;2022-08-18T06:01:14;25.10;99.90
5346;DHT22;2695;49.444;11.054;2022-08-18T06:03:48;25.30;99.90
5346;DHT22;2695;49.444;11.054;2022-08-18T06:06:23;25.30;99.90
5346;DHT22;2695;49.444;11.054;2022-08-18T06:08:58;25.40;99.90
5346;DHT22;2695;49.444;11.054;2022-08-18T06:11:29;25.40;99.90
5346;DHT22;2695;49.444;11.054;2022-08-18T06:13:57;25.60;99.90
5346;DHT22;2695;49.444;11.054;2022-08-18T06:16:40;26.30;99.90
5346;DHT22;2695;49.444;11.054;2022-08-18T06:19:26;28.20;99.90
5346;DHT22;2695;49.444;11.054;2022-08-18T06:22:00;30.30;99.90
5346;DHT22;2695;49.444;11.054;2022-08-18T06:24:35;31.90;95.50
5346;DHT22;2695;49.444;11.054;2022-08-18T06:27:09;33.40;87.00
5346;DHT22;2695;49.444;11.054;2022-08-18T06:29:47;34.40;79.80
5346;DHT22;2695;49.444;11.054;2022-08-18T06:32:23;35.40;73.00
5346;DHT22;2695;49.444;11.054;2022-08-18T06:35:05;36.20;64.90
5346;DHT22;2695;49.444;11.054;2022-08-18T06:37:52;36.40;60.90
5346;DHT22;2695;49.444;11.054;2022-08-18T06:40:42;36.50;59.10
5346;DHT22;2695;49.444;11.054;2022-08-18T06:43:13;37.20;56.50
5346;DHT22;2695;49.444;11.054;2022-08-18T06:45:45;37.90;53.50
5346;DHT22;2695;49.444;11.054;2022-08-18T06:48:24;38.40;51.00
5346;DHT22;2695;49.444;11.054;2022-08-18T06:50:58;38.80;49.00
5346;DHT22;2695;49.444;11.054;2022-08-18T06:53:49;38.90;48.30
5346;DHT22;2695;49.444;11.054;2022-08-18T06:56:22;39.20;46.60
5346;DHT22;2695;49.444;11.054;2022-08-18T06:58:52;39.30;46.50
5346;DHT22;2695;49.444;11.054;2022-08-18T07:01:22;39.90;44.80
5346;DHT22;2695;49.444;11.054;2022-08-18T07:03:53;40.10;44.20
5346;DHT22;2695;49.444;11.054;2022-08-18T07:06:30;40.60;43.10
5346;DHT22;2695;49.444;11.054;2022-08-18T07:09:19;40.80;42.80
5346;DHT22;2695;49.444;11.054;2022-08-18T07:12:02;41.30;40.80
5346;DHT22;2695;49.444;11.054;2022-08-18T07:14:41;40.50;41.80
5346;DHT22;2695;49.444;11.054;2022-08-18T07:17:11;40.10;42.20
5346;DHT22;2695;49.444;11.054;2022-08-18T07:19:39;39.40;43.10
5346;DHT22;2695;49.444;11.054;2022-08-18T07:22:12;38.70;43.90
5346;DHT22;2695;49.444;11.054;2022-08-18T07:24:45;38.60;44.40
5346;DHT22;2695;49.444;11.054;2022-08-18T07:27:15;39.40;42.90
5346;DHT22;2695;49.444;11.054;2022-08-18T07:29:59;40.00;42.10
5346;DHT22;2695;49.444;11.054;2022-08-18T07:32:34;40.10;40.50
5346;DHT22;2695;49.444;11.054;2022-08-18T07:35:05;39.40;41.40
5346;DHT22;2695;49.444;11.054;2022-08-18T07:37:39;39.30;42.30
5346;DHT22;2695;49.444;11.054;2022-08-18T07:40:18;39.40;42.40
5346;DHT22;2695;49.444;11.054;2022-08-18T07:42:51;39.70;42.20
5346;DHT22;2695;49.444;11.054;2022-08-18T07:45:32;40.10;41.90
5346;DHT22;2695;49.444;11.054;2022-08-18T07:48:06;40.70;40.60
5346;DHT22;2695;49.444;11.054;2022-08-18T07:51:08;41.40;39.20
5346;DHT22;2695;49.444;11.054;2022-08-18T07:53:51;41.50;38.70
5346;DHT22;2695;49.444;11.054;2022-08-18T07:56:31;40.90;39.10
5346;DHT22;2695;49.444;11.054;2022-08-18T07:59:11;40.10;40.50
5346;DHT22;2695;49.444;11.054;2022-08-18T08:01:45;39.60;41.00
5346;DHT22;2695;49.444;11.054;2022-08-18T08:04:24;39.30;41.50
5346;DHT22;2695;49.444;11.054;2022-08-18T08:07:00;39.50;41.40
5346;DHT22;2695;49.444;11.054;2022-08-18T08:10:15;39.50;41.10
5346;DHT22;2695;49.444;11.054;2022-08-18T08:12:51;39.60;40.70
5346;DHT22;2695;49.444;11.054;2022-08-18T08:15:41;39.50;40.50
5346;DHT22;2695;49.444;11.054;2022-08-18T08:18:13;39.50;40.90
5346;DHT22;2695;49.444;11.054;2022-08-18T08:20:47;39.70;40.70
5346;DHT22;2695;49.444;11.054;2022-08-18T08:23:27;39.30;41.10
5346;DHT22;2695;49.444;11.054;2022-08-18T08:26:22;38.60;42.00
5346;DHT22;2695;49.444;11.054;2022-08-18T08:29:00;37.70;43.20
5346;DHT22;2695;49.444;11.054;2022-08-18T08:31:35;36.70;47.30
5346;DHT22;2695;49.444;11.054;2022-08-18T08:34:13;36.20;48.90
5346;DHT22;2695;49.444;11.054;2022-08-18T08:36:44;35.80;48.50
5346;DHT22;2695;49.444;11.054;2022-08-18T08:39:18;35.40;48.90
5346;DHT22;2695;49.444;11.054;2022-08-18T08:41:51;35.30;49.30
5346;DHT22;2695;49.444;11.054;2022-08-18T08:44:45;35.00;49.10
5346;DHT22;2695;49.444;11.054;2022-08-18T08:47:28;34.60;49.60
5346;DHT22;2695;49.444;11.054;2022-08-18T08:50:02;34.20;50.30
5346;DHT22;2695;49.444;11.054;2022-08-18T08:52:36;33.90;51.10
5346;DHT22;2695;49.444;11.054;2022-08-18T08:55:10;33.70;51.70
5346;DHT22;2695;49.444;11.054;2022-08-18T08:57:46;33.60;52.20
5346;DHT22;2695;49.444;11.054;2022-08-18T09:00:17;34.10;51.30
5346;DHT22;2695;49.444;11.054;2022-08-18T09:05:49;35.60;48.80
5346;DHT22;2695;49.444;11.054;2022-08-18T09:08:44;36.00;48.10
5346;DHT22;2695;49.444;11.054;2022-08-18T09:14:43;36.30;47.10
5346;DHT22;2695;49.444;11.054;2022-08-18T09:17:31;36.40;46.90
5346;DHT22;2695;49.444;11.054;2022-08-18T09:20:14;36.30;46.00
5346;DHT22;2695;49.444;11.054;2022-08-18T09:22:49;35.90;46.10
5346;DHT22;2695;49.444;11.054;2022-08-18T09:25:43;35.40;46.80
5346;DHT22;2695;49.444;11.054;2022-08-18T09:28:18;35.10;48.10
5346;DHT22;2695;49.444;11.054;2022-08-18T09:31:13;35.00;48.70
5346;DHT22;2695;49.444;11.054;2022-08-18T09:34:02;34.80;48.70
5346;DHT22;2695;49.444;11.054;2022-08-18T09:36:48;34.60;49.10
5346;DHT22;2695;49.444;11.054;2022-08-18T09:39:48;34.50;49.30
5346;DHT22;2695;49.444;11.054;2022-08-18T09:42:41;34.50;49.60
5346;DHT22;2695;49.444;11.054;2022-08-18T09:45:55;34.80;49.50
5346;DHT22;2695;49.444;11.054;2022-08-18T09:48:30;35.00;49.00
5346;DHT22;2695;49.444;11.054;2022-08-18T09:51:21;35.40;48.70
5346;DHT22;2695;49.444;11.054;2022-08-18T09:54:13;36.00;47.90
5346;DHT22;2695;49.444;11.054;2022-08-18T09:57:21;37.70;45.20
5346;DHT22;2695;49.444;11.054;2022-08-18T09:59:56;39.50;41.70
5346;DHT22;2695;49.444;11.054;2022-08-18T10:05:38;39.80;40.00
5346;DHT22;2695;49.444;11.054;2022-08-18T10:11:36;38.50;41.10
5346;DHT22;2695;49.444;11.054;2022-08-18T10:14:42;37.70;42.20
5346;DHT22;2695;49.444;11.054;2022-08-18T10:17:21;38.10;41.60
5346;DHT22;2695;49.444;11.054;2022-08-18T10:19:59;38.30;41.30
5346;DHT22;2695;49.444;11.054;2022-08-18T10:22:43;38.20;41.40
5346;DHT22;2695;49.444;11.054;2022-08-18T10:25:30;38.10;41.50
5346;DHT22;2695;49.444;11.054;2022-08-18T10:27:59;37.70;42.20
5346;DHT22;2695;49.444;11.054;2022-08-18T10:34:01;36.90;43.70
5346;DHT22;2695;49.444;11.054;2022-08-18T10:36:50;36.50;44.10
5346;DHT22;2695;49.444;11.054;2022-08-18T10:39:22;36.50;44.30
5346;DHT22;2695;49.444;11.054;2022-08-18T10:42:05;36.90;43.80
5346;DHT22;2695;49.444;11.054;2022-08-18T10:44:43;37.10;43.00
5346;DHT22;2695;49.444;11.054;2022-08-18T10:47:21;37.30;42.80
5346;DHT22;2695;49.444;11.054;2022-08-18T10:49:51;37.00;43.20
5346;DHT22;2695;49.444;11.054;2022-08-18T10:55:49;36.40;44.60
5346;DHT22;2695;49.444;11.054;2022-08-18T10:58:31;37.10;43.30
5346;DHT22;2695;49.444;11.054;2022-08-18T11:01:09;37.80;42.40
5346;DHT22;2695;49.444;11.054;2022-08-18T11:03:56;38.10;41.50
5346;DHT22;2695;49.444;11.054;2022-08-18T11:06:42;37.90;41.50
5346;DHT22;2695;49.444;11.054;2022-08-18T11:09:11;37.40;41.80
5346;DHT22;2695;49.444;11.054;2022-08-18T11:11:42;36.50;43.20
5346;DHT22;2695;49.444;11.054;2022-08-18T11:14:35;35.90;44.70
5346;DHT22;2695;49.444;11.054;2022-08-18T11:17:12;35.40;45.60
5346;DHT22;2695;49.444;11.054;2022-08-18T11:19:44;35.10;46.00
5346;DHT22;2695;49.444;11.054;2022-08-18T11:22:21;34.80;46.60
5346;DHT22;2695;49.444;11.054;2022-08-18T11:24:59;34.70;46.90
5346;DHT22;2695;49.444;11.054;2022-08-18T11:27:33;34.80;46.90
5346;DHT22;2695;49.444;11.054;2022-08-18T11:30:04;35.20;46.70
5346;DHT22;2695;49.444;11.054;2022-08-18T11:32:39;36.40;45.00
5346;DHT22;2695;49.444;11.054;2022-08-18T11:35:20;37.40;43.30
5346;DHT22;2695;49.444;11.054;2022-08-18T11:37:55;38.00;42.00
5346;DHT22;2695;49.444;11.054;2022-08-18T11:40:35;38.30;41.00
5346;DHT22;2695;49.444;11.054;2022-08-18T11:43:28;38.00;41.00
5346;DHT22;2695;49.444;11.054;2022-08-18T11:46:13;37.30;41.90
5346;DHT22;2695;49.444;11.054;2022-08-18T11:48:48;36.70;43.00
5346;DHT22;2695;49.444;11.054;2022-08-18T11:51:22;36.30;43.80
5346;DHT22;2695;49.444;11.054;2022-08-18T11:53:55;35.90;44.60
5346;DHT22;2695;49.444;11.054;2022-08-18T11:59:47;34.90;46.50
5346;DHT22;2695;49.444;11.054;2022-08-18T12:02:26;34.50;47.30
5346;DHT22;2695;49.444;11.054;2022-08-18T12:05:00;34.20;48.30
5346;DHT22;2695;49.444;11.054;2022-08-18T12:07:39;34.20;48.00
5346;DHT22;2695;49.444;11.054;2022-08-18T12:10:25;34.30;47.60
5346;DHT22;2695;49.444;11.054;2022-08-18T12:12:56;34.50;47.50
5346;DHT22;2695;49.444;11.054;2022-08-18T12:15:30;34.60;47.30
5346;DHT22;2695;49.444;11.054;2022-08-18T12:18:14;34.60;47.00
5346;DHT22;2695;49.444;11.054;2022-08-18T12:20:52;34.50;47.20
5346;DHT22;2695;49.444;11.054;2022-08-18T12:23:20;34.30;47.70
5346;DHT22;2695;49.444;11.054;2022-08-18T12:25:48;34.20;47.80
5346;DHT22;2695;49.444;11.054;2022-08-18T12:28:18;33.90;48.30
5346;DHT22;2695;49.444;11.054;2022-08-18T12:30:55;33.90;48.80
5346;DHT22;2695;49.444;11.054;2022-08-18T12:33:43;33.60;49.00
5346;DHT22;2695;49.444;11.054;2022-08-18T12:36:31;33.50;49.20
5346;DHT22;2695;49.444;11.054;2022-08-18T12:39:00;33.50;49.30
5346;DHT22;2695;49.444;11.054;2022-08-18T12:41:31;33.70;49.00
5346;DHT22;2695;49.444;11.054;2022-08-18T12:44:00;34.00;48.40
5346;DHT22;2695;49.444;11.054;2022-08-18T12:46:29;33.90;49.00
5346;DHT22;2695;49.444;11.054;2022-08-18T12:48:58;33.90;49.10
5346;DHT22;2695;49.444;11.054;2022-08-18T12:51:28;33.90;49.40
5346;DHT22;2695;49.444;11.054;2022-08-18T12:53:57;33.90;49.30
5346;DHT22;2695;49.444;11.054;2022-08-18T12:56:27;33.90;49.40
5346;DHT22;2695;49.444;11.054;2022-08-18T12:58:58;33.70;49.20
5346;DHT22;2695;49.444;11.054;2022-08-18T13:01:32;33.70;49.40
5346;DHT22;2695;49.444;11.054;2022-08-18T13:04:02;33.40;49.90
5346;DHT22;2695;49.444;11.054;2022-08-18T13:06:44;33.30;50.50
5346;DHT22;2695;49.444;11.054;2022-08-18T13:09:27;33.20;50.60
5346;DHT22;2695;49.444;11.054;2022-08-18T13:12:15;32.90;51.10
5346;DHT22;2695;49.444;11.054;2022-08-18T13:14:46;32.70;52.00
5346;DHT22;2695;49.444;11.054;2022-08-18T13:17:18;32.50;52.30
5346;DHT22;2695;49.444;11.054;2022-08-18T13:20:00;32.40;52.40
5346;DHT22;2695;49.444;11.054;2022-08-18T13:22:30;32.30;52.80
5346;DHT22;2695;49.444;11.054;2022-08-18T13:24:59;32.30;53.10
5346;DHT22;2695;49.444;11.054;2022-08-18T13:27:29;32.00;53.50
5346;DHT22;2695;49.444;11.054;2022-08-18T13:30:14;31.80;53.90
5346;DHT22;2695;49.444;11.054;2022-08-18T13:32:58;31.70;54.40
5346;DHT22;2695;49.444;11.054;2022-08-18T13:35:47;31.60;54.20
5346;DHT22;2695;49.444;11.054;2022-08-18T13:38:21;31.50;55.00
5346;DHT22;2695;49.444;11.054;2022-08-18T13:40:56;31.40;54.50
5346;DHT22;2695;49.444;11.054;2022-08-18T13:43:29;31.60;54.40
5346;DHT22;2695;49.444;11.054;2022-08-18T13:46:00;31.50;55.20
5346;DHT22;2695;49.444;11.054;2022-08-18T13:48:31;31.40;54.20
5346;DHT22;2695;49.444;11.054;2022-08-18T13:51:00;31.30;54.40
5346;DHT22;2695;49.444;11.054;2022-08-18T13:53:29;31.20;54.40
5346;DHT22;2695;49.444;11.054;2022-08-18T13:55:58;31.10;54.40
5346;DHT22;2695;49.444;11.054;2022-08-18T13:58:27;31.10;54.70
5346;DHT22;2695;49.444;11.054;2022-08-18T14:00:57;31.20;55.00
5346;DHT22;2695;49.444;11.054;2022-08-18T14:03:47;31.10;54.60
5346;DHT22;2695;49.444;11.054;2022-08-18T14:06:16;31.20;54.50
5346;DHT22;2695;49.444;11.054;2022-08-18T14:08:50;31.30;54.30
5346;DHT22;2695;49.444;11.054;2022-08-18T14:11:20;31.30;54.20
5346;DHT22;2695;49.444;11.054;2022-08-18T14:13:51;31.40;54.30
5346;DHT22;2695;49.444;11.054;2022-08-18T14:16:20;31.40;54.30
5346;DHT22;2695;49.444;11.054;2022-08-18T14:18:54;31.40;54.30
5346;DHT22;2695;49.444;11.054;2022-08-18T14:21:42;31.40;54.60
5346;DHT22;2695;49.444;11.054;2022-08-18T14:24:28;31.40;54.80
5346;DHT22;2695;49.444;11.054;2022-08-18T14:27:15;31.10;55.00
5346;DHT22;2695;49.444;11.054;2022-08-18T14:29:44;31.10;54.90
5346;DHT22;2695;49.444;11.054;2022-08-18T14:32:18;31.10;54.90
5346;DHT22;2695;49.444;11.054;2022-08-18T14:34:57;31.10;54.80
5346;DHT22;2695;49.444;11.054;2022-08-18T14:37:46;31.00;55.20
5346;DHT22;2695;49.444;11.054;2022-08-18T14:40:16;31.00;55.40
5346;DHT22;2695;49.444;11.054;2022-08-18T14:42:46;31.10;55.10
5346;DHT22;2695;49.444;11.054;2022-08-18T14:45:21;31.20;54.80
5346;DHT22;2695;49.444;11.054;2022-08-18T14:48:00;31.30;54.80
5346;DHT22;2695;49.444;11.054;2022-08-18T14:50:34;31.40;55.00
5346;DHT22;2695;49.444;11.054;2022-08-18T14:53:03;31.50;55.00
5346;DHT22;2695;49.444;11.054;2022-08-18T14:55:32;31.50;55.00
5346;DHT22;2695;49.444;11.054;2022-08-18T14:58:01;31.50;55.00
5346;DHT22;2695;49.444;11.054;2022-08-18T15:00:33;31.50;54.70
5346;DHT22;2695;49.444;11.054;2022-08-18T15:03:19;31.50;55.00
5346;DHT22;2695;49.444;11.054;2022-08-18T15:06:02;31.60;54.60
5346;DHT22;2695;49.444;11.054;2022-08-18T15:08:56;31.60;54.60
5346;DHT22;2695;49.444;11.054;2022-08-18T15:11:25;31.60;54.60
5346;DHT22;2695;49.444;11.054;2022-08-18T15:13:57;31.50;54.70
5346;DHT22;2695;49.444;11.054;2022-08-18T15:16:26;31.60;54.70
5346;DHT22;2695;49.444;11.054;2022-08-18T15:19:04;31.60;55.20
5346;DHT22;2695;49.444;11.054;2022-08-18T15:21:54;31.60;54.40
5346;DHT22;2695;49.444;11.054;2022-08-18T15:24:42;31.60;54.60
5346;DHT22;2695;49.444;11.054;2022-08-18T15:27:33;31.50;54.20
5346;DHT22;2695;49.444;11.054;2022-08-18T15:30:45;31.60;54.60
5346;DHT22;2695;49.444;11.054;2022-08-18T15:33:18;31.60;54.90
5346;DHT22;2695;49.444;11.054;2022-08-18T15:36:01;31.60;55.00
5346;DHT22;2695;49.444;11.054;2022-08-18T15:38:36;31.60;54.60
5346;DHT22;2695;49.444;11.054;2022-08-18T15:41:06;31.50;54.60
5346;DHT22;2695;49.444;11.054;2022-08-18T15:43:35;31.60;54.90
5346;DHT22;2695;49.444;11.054;2022-08-18T15:46:14;31.60;54.70
5346;DHT22;2695;49.444;11.054;2022-08-18T15:48:46;31.70;55.00
5346;DHT22;2695;49.444;11.054;2022-08-18T15:51:14;31.70;54.70
5346;DHT22;2695;49.444;11.054;2022-08-18T15:53:44;31.70;54.60
5346;DHT22;2695;49.444;11.054;2022-08-18T15:56:15;31.70;54.40
5346;DHT22;2695;49.444;11.054;2022-08-18T15:58:48;31.60;54.70
5346;DHT22;2695;49.444;11.054;2022-08-18T16:01:18;31.50;54.90
5346;DHT22;2695;49.444;11.054;2022-08-18T16:03:57;31.40;54.90
5346;DHT22;2695;49.444;11.054;2022-08-18T16:06:27;31.30;55.40
5346;DHT22;2695;49.444;11.054;2022-08-18T16:09:00;31.30;55.50
5346;DHT22;2695;49.444;11.054;2022-08-18T16:11:29;31.10;55.60
5346;DHT22;2695;49.444;11.054;2022-08-18T16:13:57;31.10;55.70
5346;DHT22;2695;49.444;11.054;2022-08-18T16:16:25;31.10;55.90
5346;DHT22;2695;49.444;11.054;2022-08-18T16:19:01;31.00;56.00
5346;DHT22;2695;49.444;11.054;2022-08-18T16:21:30;31.00;56.20
5346;DHT22;2695;49.444;11.054;2022-08-18T16:24:00;31.00;55.90
5346;DHT22;2695;49.444;11.054;2022-08-18T16:26:29;30.90;56.10
5346;DHT22;2695;49.444;11.054;2022-08-18T16:28:57;30.80;56.30
5346;DHT22;2695;49.444;11.054;2022-08-18T16:31:27;30.80;56.10
5346;DHT22;2695;49.444;11.054;2022-08-18T16:33:56;30.70;56.30
5346;DHT22;2695;49.444;11.054;2022-08-18T16:36:25;30.70;56.60
5346;DHT22;2695;49.444;11.054;2022-08-18T16:38:53;30.60;56.50
5346;DHT22;2695;49.444;11.054;2022-08-18T16:41:25;30.60;56.70
5346;DHT22;2695;49.444;11.054;2022-08-18T16:43:53;30.60;57.00
5346;DHT22;2695;49.444;11.054;2022-08-18T16:46:23;30.60;56.70
5346;DHT22;2695;49.444;11.054;2022-08-18T16:48:53;30.50;56.70
5346;DHT22;2695;49.444;11.054;2022-08-18T16:51:23;30.50;57.00
5346;DHT22;2695;49.444;11.054;2022-08-18T16:53:51;30.40;57.10
5346;DHT22;2695;49.444;11.054;2022-08-18T16:56:22;30.30;57.10
5346;DHT22;2695;49.444;11.054;2022-08-18T16:58:51;30.30;57.70